createdAt,value
2022-08-07T00:01:12.645Z,13.53
2022-08-07T00:03:50.667Z,13.45
2022-08-07T00:06:17.325Z,13.33
2022-08-07T00:08:47.946Z,13.28
2022-08-07T00:11:20.071Z,13.29
2022-08-07T00:13:56.925Z,13.18
2022-08-07T00:16:28.062Z,13.23
2022-08-07T00:18:54.822Z,13.27
2022-08-07T00:21:56.041Z,13.20
2022-08-07T00:24:08.997Z,13.10
2022-08-07T00:26:58.883Z,13.07
2022-08-07T00:29:25.975Z,13.03
2022-08-07T00:31:59.675Z,12.97
2022-08-07T00:34:27.082Z,12.97
2022-08-07T00:36:56.102Z,12.98
2022-08-07T00:39:22.774Z,12.93
2022-08-07T00:41:53.663Z,12.87
2022-08-07T00:44:27.894Z,12.79
2022-08-07T00:46:55.373Z,12.79
2022-08-07T00:49:24.941Z,12.77
2022-08-07T00:52:10.249Z,12.79
2022-08-07T00:54:40.704Z,12.74
2022-08-07T00:57:09.179Z,12.65
2022-08-07T00:59:37.446Z,12.69
2022-08-07T01:02:08.873Z,12.70
2022-08-07T01:04:43.456Z,12.69
2022-08-07T01:07:11.423Z,12.66
2022-08-07T01:10:06.513Z,12.67
2022-08-07T01:12:30.243Z,12.78
2022-08-07T01:15:01.523Z,12.76
2022-08-07T01:17:31.343Z,12.70
2022-08-07T01:20:04.752Z,12.61
2022-08-07T01:22:31.727Z,12.61
2022-08-07T01:24:59.275Z,12.62
2022-08-07T01:27:31.968Z,12.77
2022-08-07T01:29:59.746Z,12.81
2022-08-07T01:32:27.729Z,12.73
2022-08-07T01:34:56.156Z,12.63
2022-08-07T01:37:24.511Z,12.65
2022-08-07T01:39:52.261Z,12.74
2022-08-07T01:42:38.842Z,12.72
2022-08-07T01:45:15.700Z,12.69
2022-08-07T01:48:21.583Z,12.68
2022-08-07T01:50:32.405Z,12.61
2022-08-07T01:53:00.960Z,12.59
2022-08-07T01:55:33.807Z,12.58
2022-08-07T01:58:29.053Z,12.65
2022-08-07T02:01:10.002Z,12.50
2022-08-07T02:03:53.952Z,12.34
2022-08-07T02:06:31.216Z,12.28
2022-08-07T02:09:03.578Z,12.33
2022-08-07T02:12:04.089Z,12.39
2022-08-07T02:14:36.041Z,12.36
2022-08-07T02:17:09.447Z,12.29
2022-08-07T02:20:05.206Z,12.18
2022-08-07T02:22:29.112Z,12.17
2022-08-07T02:24:57.529Z,12.28
2022-08-07T02:27:26.461Z,12.37
2022-08-07T02:30:07.091Z,12.35
2022-08-07T02:32:38.722Z,12.25
2022-08-07T02:35:09.199Z,12.18
2022-08-07T02:37:44.050Z,11.99
2022-08-07T02:40:30.099Z,12.05
2022-08-07T02:42:58.835Z,12.09
2022-08-07T02:45:58.416Z,12.07
2022-08-07T02:48:15.689Z,12.01
2022-08-07T02:50:48.343Z,12.00
2022-08-07T02:53:38.396Z,11.94
2022-08-07T02:56:17.635Z,11.80
2022-08-07T02:58:51.290Z,11.90
2022-08-07T03:01:36.371Z,11.89
2022-08-07T03:04:07.130Z,11.90
2022-08-07T03:06:34.901Z,11.87
2022-08-07T03:09:03.682Z,11.80
2022-08-07T03:11:32.631Z,11.78
2022-08-07T03:14:02.408Z,11.78
2022-08-07T03:16:30.971Z,11.89
2022-08-07T03:18:59.179Z,11.92
2022-08-07T03:21:27.433Z,11.83
2022-08-07T03:24:20.659Z,11.91
2022-08-07T03:26:57.743Z,11.96
2022-08-07T03:29:50.762Z,11.83
2022-08-07T03:32:23.400Z,11.73
2022-08-07T03:35:16.842Z,11.66
2022-08-07T03:37:46.219Z,11.56
2022-08-07T03:40:20.569Z,11.66
2022-08-07T03:42:49.905Z,11.63
2022-08-07T03:45:30.404Z,11.62
2022-08-07T03:47:58.646Z,11.57
2022-08-07T03:50:28.759Z,11.59
2022-08-07T03:52:58.859Z,11.69
2022-08-07T03:55:57.679Z,11.67
2022-08-07T03:59:06.670Z,11.63
2022-08-07T04:01:00.466Z,11.55
2022-08-07T04:03:27.174Z,11.48
2022-08-07T04:05:58.783Z,11.43
2022-08-07T04:08:26.558Z,11.41
2022-08-07T04:12:15.707Z,11.44
2022-08-07T04:14:33.286Z,11.49
2022-08-07T04:16:31.017Z,11.51
2022-08-07T04:19:03.722Z,11.47
2022-08-07T04:21:38.813Z,11.48
2022-08-07T04:24:10.361Z,11.49
2022-08-07T04:26:58.011Z,11.45
2022-08-07T04:29:24.439Z,11.37
2022-08-07T04:32:03.052Z,11.42
2022-08-07T04:34:37.734Z,11.51
2022-08-07T04:37:08.094Z,11.53
2022-08-07T04:39:48.010Z,11.53
2022-08-07T04:42:16.315Z,11.51
2022-08-07T04:44:54.534Z,11.45
2022-08-07T04:48:00.461Z,11.47
2022-08-07T04:51:04.224Z,11.51
2022-08-07T04:54:01.716Z,11.59
2022-08-07T04:58:14.422Z,11.75
2022-08-07T05:00:10.947Z,11.78
2022-08-07T05:02:34.736Z,11.71
2022-08-07T05:05:54.036Z,11.78
2022-08-07T05:08:15.367Z,11.71
2022-08-07T05:10:58.371Z,11.90
2022-08-07T05:14:55.623Z,12.13
2022-08-07T05:16:30.130Z,12.12
2022-08-07T05:19:04.837Z,12.19
2022-08-07T05:22:00.548Z,12.17
2022-08-07T05:24:20.930Z,12.23
2022-08-07T05:26:55.352Z,12.28
2022-08-07T05:29:26.090Z,12.35
2022-08-07T05:32:08.253Z,12.41
2022-08-07T05:34:36.476Z,12.49
2022-08-07T05:37:05.843Z,12.60
2022-08-07T05:40:07.075Z,12.75
2022-08-07T05:42:33.308Z,12.90
2022-08-07T05:45:14.716Z,13.04
2022-08-07T05:48:01.761Z,13.20
2022-08-07T05:50:32.016Z,13.30
2022-08-07T05:52:59.294Z,13.42
2022-08-07T05:56:02.225Z,13.52
2022-08-07T05:58:14.587Z,13.64
2022-08-07T06:00:46.500Z,13.74
2022-08-07T06:03:20.034Z,13.90
2022-08-07T06:05:49.653Z,14.06
2022-08-07T06:08:31.453Z,14.16
2022-08-07T06:10:59.429Z,14.32
2022-08-07T06:14:10.707Z,14.48
2022-08-07T06:16:20.173Z,14.52
2022-08-07T06:18:55.518Z,14.80
2022-08-07T06:22:15.027Z,14.98
2022-08-07T06:24:45.741Z,15.09
2022-08-07T06:26:55.946Z,15.20
2022-08-07T06:29:29.612Z,15.15
2022-08-07T06:31:56.050Z,15.22
2022-08-07T06:34:29.814Z,15.33
2022-08-07T06:36:57.065Z,15.37
2022-08-07T06:40:16.390Z,15.47
2022-08-07T06:42:17.632Z,15.56
2022-08-07T06:44:50.937Z,15.56
2022-08-07T06:47:18.813Z,15.55
2022-08-07T06:49:51.470Z,15.69
2022-08-07T06:52:32.079Z,15.73
2022-08-07T06:55:31.950Z,15.79
2022-08-07T06:58:04.730Z,15.98
2022-08-07T07:00:36.688Z,16.01
2022-08-07T07:03:08.620Z,16.12
2022-08-07T07:06:03.580Z,16.14
2022-08-07T07:08:27.249Z,16.18
2022-08-07T07:10:56.475Z,16.21
2022-08-07T07:13:56.292Z,16.12
2022-08-07T07:16:27.494Z,16.28
2022-08-07T07:19:11.473Z,16.31
2022-08-07T07:22:05.262Z,16.39
2022-08-07T07:24:36.675Z,16.44
2022-08-07T07:27:05.851Z,16.49
2022-08-07T07:29:56.146Z,16.46
2022-08-07T07:32:25.654Z,16.73
2022-08-07T07:34:55.871Z,16.70
2022-08-07T07:37:49.635Z,16.79
2022-08-07T07:40:16.638Z,17.03
2022-08-07T07:42:47.058Z,17.30
2022-08-07T07:45:24.489Z,17.43
2022-08-07T07:48:11.226Z,17.51
2022-08-07T07:50:40.158Z,17.53
2022-08-07T07:53:20.476Z,17.51
2022-08-07T07:56:00.800Z,17.56
2022-08-07T07:58:40.569Z,17.57
2022-08-07T08:02:02.513Z,17.57
2022-08-07T08:04:09.506Z,17.58
2022-08-07T08:06:39.525Z,17.66
2022-08-07T08:09:08.498Z,17.61
2022-08-07T08:11:59.731Z,17.75
2022-08-07T08:14:26.282Z,17.96
2022-08-07T08:16:56.615Z,18.04
2022-08-07T08:20:17.398Z,18.15
2022-08-07T08:22:56.118Z,18.22
2022-08-07T08:25:49.232Z,18.30
2022-08-07T08:28:23.755Z,18.34
2022-08-07T08:30:58.967Z,18.38
2022-08-07T08:33:33.222Z,18.32
2022-08-07T08:36:01.665Z,18.54
2022-08-07T08:38:41.019Z,18.79
2022-08-07T08:41:56.799Z,19.11
2022-08-07T08:44:16.157Z,19.19
2022-08-07T08:47:05.974Z,19.22
2022-08-07T08:50:04.500Z,19.17
2022-08-07T08:52:40.754Z,19.27
2022-08-07T08:55:53.275Z,19.36
2022-08-07T08:58:54.834Z,19.38
2022-08-07T09:02:00.380Z,19.47
2022-08-07T09:04:44.542Z,19.60
2022-08-07T09:07:25.345Z,19.79
2022-08-07T09:10:04.675Z,20.22
2022-08-07T09:12:39.767Z,20.64
2022-08-07T09:16:24.060Z,20.96
2022-08-07T09:18:38.574Z,20.99
2022-08-07T09:21:57.905Z,20.87
2022-08-07T09:24:58.585Z,20.76
2022-08-07T09:27:59.425Z,20.62
2022-08-07T09:30:29.404Z,20.59
2022-08-07T09:33:16.458Z,20.68
2022-08-07T09:36:09.684Z,20.62
2022-08-07T09:38:39.181Z,20.41
2022-08-07T09:41:16.766Z,20.40
2022-08-07T09:44:06.827Z,20.53
2022-08-07T09:47:50.208Z,20.65
2022-08-07T09:50:19.983Z,20.66
2022-08-07T09:52:51.903Z,20.73
2022-08-07T09:56:04.630Z,20.77
2022-08-07T09:58:38.758Z,20.85
2022-08-07T10:01:52.052Z,20.95
2022-08-07T10:04:39.430Z,20.99
2022-08-07T10:07:31.383Z,21.06
2022-08-07T10:10:12.048Z,21.10
2022-08-07T10:13:04.060Z,21.19
2022-08-07T10:16:01.718Z,21.16
2022-08-07T10:18:50.300Z,20.98
2022-08-07T10:22:14.524Z,20.98
2022-08-07T10:24:33.392Z,21.05
2022-08-07T10:27:15.911Z,21.05
2022-08-07T10:30:01.960Z,20.91
2022-08-07T10:32:53.405Z,20.81
2022-08-07T10:35:55.405Z,20.91
2022-08-07T10:38:42.094Z,20.98
2022-08-07T10:41:51.944Z,21.05
2022-08-07T10:44:37.431Z,21.06
2022-08-07T10:47:27.183Z,21.03
2022-08-07T10:50:25.884Z,21.21
2022-08-07T10:53:24.982Z,21.32
2022-08-07T10:56:20.676Z,21.43
2022-08-07T10:59:09.664Z,21.43
2022-08-07T11:02:04.985Z,21.40
2022-08-07T11:04:55.874Z,21.30
2022-08-07T11:07:58.651Z,21.24
2022-08-07T11:10:27.358Z,21.40
2022-08-07T11:13:03.955Z,21.18
2022-08-07T11:15:38.341Z,21.28
2022-08-07T11:18:40.445Z,21.25
2022-08-07T11:21:35.239Z,21.32
2022-08-07T11:24:36.690Z,21.35
2022-08-07T11:27:33.392Z,21.35
2022-08-07T11:30:17.890Z,21.34
2022-08-07T11:32:58.522Z,21.30
2022-08-07T11:35:30.071Z,21.26
2022-08-07T11:38:12.690Z,21.33
2022-08-07T11:40:57.473Z,21.36
2022-08-07T11:43:29.569Z,21.37
2022-08-07T11:46:38.799Z,21.40
2022-08-07T11:49:50.581Z,21.38
2022-08-07T11:52:44.910Z,21.36
2022-08-07T11:56:09.136Z,21.42
2022-08-07T11:58:55.355Z,21.54
2022-08-07T12:01:58.780Z,21.47
2022-08-07T12:04:38.501Z,21.40
2022-08-07T12:07:27.122Z,21.41
2022-08-07T12:10:02.108Z,21.34
2022-08-07T12:12:43.831Z,21.38
2022-08-07T12:15:46.106Z,21.23
2022-08-07T12:18:08.151Z,21.39
2022-08-07T12:21:15.929Z,21.54
2022-08-07T12:24:05.411Z,21.49
2022-08-07T12:26:53.717Z,21.39
2022-08-07T12:29:38.155Z,21.33
2022-08-07T12:32:50.613Z,21.36
2022-08-07T12:35:19.339Z,21.44
2022-08-07T12:38:09.026Z,21.44
2022-08-07T12:40:48.898Z,21.48
2022-08-07T12:44:04.259Z,21.46
2022-08-07T12:46:34.151Z,21.51
2022-08-07T12:49:48.511Z,21.66
2022-08-07T12:52:34.216Z,21.84
2022-08-07T12:55:17.754Z,21.85
2022-08-07T12:58:00.208Z,21.90
2022-08-07T13:01:00.337Z,21.80
2022-08-07T13:04:02.240Z,21.63
2022-08-07T13:07:03.113Z,21.34
2022-08-07T13:10:39.239Z,21.31
2022-08-07T13:13:48.473Z,21.24
2022-08-07T13:16:41.844Z,21.00
2022-08-07T13:19:50.360Z,20.76
2022-08-07T13:22:31.640Z,20.81
2022-08-07T13:25:15.211Z,20.87
2022-08-07T13:28:13.701Z,21.02
2022-08-07T13:30:52.133Z,20.80
2022-08-07T13:34:32.788Z,20.76
2022-08-07T13:36:30.506Z,20.72
2022-08-07T13:40:32.929Z,20.69
2022-08-07T13:42:21.518Z,20.74
2022-08-07T13:44:55.276Z,20.90
2022-08-07T13:48:05.918Z,20.98
2022-08-07T13:50:32.843Z,21.06
2022-08-07T13:53:05.184Z,21.19
2022-08-07T13:55:33.991Z,21.26
2022-08-07T13:58:31.810Z,21.22
2022-08-07T14:01:10.649Z,21.07
2022-08-07T14:04:07.586Z,20.98
2022-08-07T14:06:38.473Z,20.93
2022-08-07T14:09:07.155Z,20.97
2022-08-07T14:11:53.504Z,21.03
2022-08-07T14:14:38.634Z,20.89
2022-08-07T14:17:32.010Z,20.96
2022-08-07T14:20:44.378Z,20.81
2022-08-07T14:23:00.673Z,20.89
2022-08-07T14:25:39.635Z,20.74
2022-08-07T14:28:14.681Z,20.79
2022-08-07T14:30:47.123Z,20.82
2022-08-07T14:33:22.459Z,20.85
2022-08-07T14:35:55.694Z,20.83
2022-08-07T14:38:30.707Z,20.76
2022-08-07T14:41:04.966Z,20.80
2022-08-07T14:43:57.075Z,20.77
2022-08-07T14:46:30.629Z,20.77
2022-08-07T14:49:00.211Z,20.77
2022-08-07T14:52:04.315Z,20.86
2022-08-07T14:54:35.924Z,20.92
2022-08-07T14:57:19.160Z,21.02
2022-08-07T15:00:04.953Z,21.06
2022-08-07T15:02:34.936Z,20.96
2022-08-07T15:05:03.326Z,20.92
2022-08-07T15:07:50.861Z,20.86
2022-08-07T15:10:26.468Z,20.69
2022-08-07T15:13:12.283Z,20.68
2022-08-07T15:15:53.391Z,20.70
2022-08-07T15:18:33.602Z,20.78
2022-08-07T15:25:14.363Z,20.71
2022-08-07T15:26:51.397Z,20.68
2022-08-07T15:30:08.693Z,20.71
2022-08-07T15:32:11.784Z,20.84
2022-08-07T15:34:50.137Z,20.78
2022-08-07T15:37:27.884Z,20.81
2022-08-07T15:40:02.735Z,20.88
2022-08-07T15:42:51.858Z,20.80
2022-08-07T15:45:55.694Z,20.76
2022-08-07T15:49:11.935Z,20.68
2022-08-07T15:54:16.199Z,20.52
2022-08-07T15:56:44.933Z,20.38
2022-08-07T15:59:17.233Z,20.39
2022-08-07T16:02:01.826Z,20.48
2022-08-07T16:04:32.454Z,20.57
2022-08-07T16:07:01.089Z,20.57
2022-08-07T16:09:51.748Z,20.44
2022-08-07T16:12:34.404Z,20.39
2022-08-07T16:15:54.474Z,20.37
2022-08-07T16:19:04.220Z,20.40
2022-08-07T16:22:17.570Z,20.31
2022-08-07T16:24:59.498Z,20.12
2022-08-07T16:27:40.822Z,20.03
2022-08-07T16:30:30.947Z,19.85
2022-08-07T16:34:02.367Z,19.78
2022-08-07T16:36:23.022Z,19.77
2022-08-07T16:39:33.589Z,19.67
2022-08-07T16:42:12.464Z,19.68
2022-08-07T16:45:24.722Z,19.71
2022-08-07T16:48:53.557Z,19.66
2022-08-07T16:52:01.472Z,19.66
2022-08-07T16:54:32.944Z,19.68
2022-08-07T16:58:01.788Z,19.62
2022-08-07T17:00:39.944Z,19.70
2022-08-07T17:03:19.179Z,19.70
2022-08-07T17:06:29.848Z,19.81
2022-08-07T17:10:07.153Z,19.61
2022-08-07T17:12:36.742Z,19.52
2022-08-07T17:15:15.790Z,19.44
2022-08-07T17:17:48.449Z,19.39
2022-08-07T17:20:41.274Z,19.35
2022-08-07T17:23:49.188Z,19.15
2022-08-07T17:26:35.849Z,19.23
2022-08-07T17:30:15.732Z,19.37
2022-08-07T17:32:31.400Z,19.44
2022-08-07T17:35:50.984Z,19.41
2022-08-07T17:38:50.246Z,19.31
2022-08-07T17:42:02.165Z,19.21
2022-08-07T17:44:34.178Z,19.14
2022-08-07T17:47:38.673Z,19.09
2022-08-07T17:50:16.380Z,19.03
2022-08-07T17:52:59.847Z,18.84
2022-08-07T17:55:55.782Z,18.94
2022-08-07T17:58:46.203Z,18.92
2022-08-07T18:01:21.857Z,18.87
2022-08-07T18:04:16.793Z,18.85
2022-08-07T18:07:19.095Z,18.81
2022-08-07T18:10:06.557Z,18.75
2022-08-07T18:12:59.096Z,18.72
2022-08-07T18:15:32.792Z,18.60
2022-08-07T18:18:46.956Z,18.64
2022-08-07T18:21:29.564Z,18.58
2022-08-07T18:24:35.474Z,18.60
2022-08-07T18:27:12.397Z,18.57
2022-08-07T18:30:31.596Z,18.49
2022-08-07T18:33:31.494Z,18.41
2022-08-07T18:36:16.543Z,18.34
2022-08-07T18:38:58.005Z,18.31
2022-08-07T18:41:54.114Z,18.23
2022-08-07T18:44:24.038Z,18.17
2022-08-07T18:47:03.137Z,18.17
2022-08-07T18:50:30.925Z,18.16
2022-08-07T18:53:04.809Z,18.00
2022-08-07T18:56:01.759Z,18.05
2022-08-07T18:58:54.180Z,17.94
2022-08-07T19:02:18.956Z,17.99
2022-08-07T19:04:39.753Z,17.87
2022-08-07T19:07:51.697Z,17.80
2022-08-07T19:10:31.389Z,17.79
2022-08-07T19:13:11.739Z,17.73
2022-08-07T19:17:05.580Z,17.69
2022-08-07T19:19:04.892Z,17.65
2022-08-07T19:22:04.209Z,17.54
2022-08-07T19:24:50.062Z,17.60
2022-08-07T19:28:29.621Z,17.52
2022-08-07T19:31:04.038Z,17.42
2022-08-07T19:33:08.312Z,17.34
2022-08-07T19:35:37.684Z,17.35
2022-08-07T19:38:16.726Z,17.35
2022-08-07T19:40:50.516Z,17.29
2022-08-07T19:43:49.183Z,17.25
2022-08-07T19:46:15.927Z,17.15
2022-08-07T19:48:53.717Z,17.13
2022-08-07T19:51:51.055Z,17.11
2022-08-07T19:54:37.291Z,17.08
2022-08-07T19:58:01.223Z,16.97
2022-08-07T19:59:58.129Z,16.70
2022-08-07T20:02:39.781Z,16.71
2022-08-07T20:05:29.933Z,16.68
2022-08-07T20:07:59.500Z,16.73
2022-08-07T20:10:51.042Z,16.83
2022-08-07T20:13:27.023Z,16.86
2022-08-07T20:16:01.934Z,16.87
2022-08-07T20:18:32.205Z,16.82
2022-08-07T20:21:02.477Z,16.77
2022-08-07T20:23:40.728Z,16.59
2022-08-07T20:26:10.958Z,16.42
2022-08-07T20:28:42.026Z,16.40
2022-08-07T20:31:21.323Z,16.36
2022-08-07T20:33:57.500Z,16.17
2022-08-07T20:36:28.343Z,16.27
2022-08-07T20:38:59.909Z,16.28
2022-08-07T20:41:34.152Z,16.23
2022-08-07T20:44:12.465Z,16.21
2022-08-07T20:46:44.190Z,16.05
2022-08-07T20:49:58.082Z,16.00
2022-08-07T20:52:00.503Z,16.04
2022-08-07T20:54:32.175Z,16.09
2022-08-07T20:57:04.527Z,16.12
2022-08-07T21:00:08.103Z,16.12
2022-08-07T21:02:54.520Z,16.21
2022-08-07T21:05:25.754Z,16.29
2022-08-07T21:08:15.587Z,16.20
2022-08-07T21:10:44.140Z,16.18
2022-08-07T21:13:14.687Z,16.06
2022-08-07T21:15:48.072Z,16.00
2022-08-07T21:18:35.895Z,15.97
2022-08-07T21:21:08.358Z,15.95
2022-08-07T21:23:49.560Z,15.94
2022-08-07T21:26:26.371Z,15.90
2022-08-07T21:29:07.317Z,15.78
2022-08-07T21:32:46.945Z,15.91
2022-08-07T21:35:02.636Z,15.92
2022-08-07T21:37:57.911Z,15.79
2022-08-07T21:40:43.745Z,15.77
2022-08-07T21:43:23.087Z,15.77
2022-08-07T21:46:08.873Z,15.76
2022-08-07T21:48:56.636Z,15.70
2022-08-07T21:52:05.757Z,15.59
2022-08-07T21:54:50.724Z,15.52
2022-08-07T21:57:51.735Z,15.35
2022-08-07T22:00:25.283Z,15.19
2022-08-07T22:03:31.140Z,15.11
2022-08-07T22:06:28.886Z,15.13
2022-08-07T22:09:06.988Z,15.14
2022-08-07T22:12:05.006Z,15.18
2022-08-07T22:14:36.128Z,15.22
2022-08-07T22:17:05.010Z,15.14
2022-08-07T22:19:53.662Z,15.14
2022-08-07T22:22:30.030Z,14.89
2022-08-07T22:25:26.617Z,15.15
2022-08-07T22:28:31.146Z,15.21
2022-08-07T22:31:06.820Z,15.22
2022-08-07T22:33:56.711Z,15.15
2022-08-07T22:37:05.778Z,15.18
2022-08-07T22:39:54.814Z,15.13
2022-08-07T22:42:26.059Z,14.84
2022-08-07T22:45:02.403Z,14.85
2022-08-07T22:47:52.163Z,14.67
2022-08-07T22:50:39.665Z,14.68
2022-08-07T22:54:08.088Z,14.83
2022-08-07T22:57:00.877Z,14.85
2022-08-07T22:59:49.709Z,14.70
2022-08-07T23:02:37.377Z,14.67
2022-08-07T23:06:07.244Z,14.72
2022-08-07T23:08:22.254Z,14.67
2022-08-07T23:11:13.763Z,14.77
2022-08-07T23:13:48.590Z,14.79
2022-08-07T23:16:55.449Z,14.75
2022-08-07T23:19:59.815Z,14.78
2022-08-07T23:22:43.649Z,14.67
2022-08-07T23:25:12.134Z,14.58
2022-08-07T23:28:22.618Z,14.52
2022-08-07T23:31:06.761Z,14.50
2022-08-07T23:34:23.805Z,14.51
2022-08-07T23:37:20.057Z,14.58
2022-08-07T23:40:00.379Z,14.59
2022-08-07T23:43:00.593Z,14.52
2022-08-07T23:46:02.605Z,14.47
2022-08-07T23:48:33.748Z,14.48
2022-08-07T23:51:12.350Z,14.50
2022-08-07T23:54:19.459Z,14.40
2022-08-07T23:56:56.547Z,14.41
